sensor_id;sensor_type;location;lat;lon;timestamp;pressure;altitude;pressure_sealevel;temperature;humidity
28927;BME280;16038;47.692;9.400;2024-01-30T00:00:35;98168.66;;;-1.28;100.00
28927;BME280;16038;47.692;9.400;2024-01-30T00:03:00;98165.22;;;-1.24;100.00
28927;BME280;16038;47.692;9.400;2024-01-30T00:05:26;98160.75;;;-1.13;100.00
28927;BME280;16038;47.692;9.400;2024-01-30T00:07:51;98155.31;;;-1.18;100.00
28927;BME280;16038;47.692;9.400;2024-01-30T00:10:16;98167.13;;;-1.19;100.00
28927;BME280;16038;47.692;9.400;2024-01-30T00:12:42;98163.50;;;-1.08;100.00
28927;BME280;16038;47.692;9.400;2024-01-30T00:15:08;98162.50;;;-0.97;100.00
28927;BME280;16038;47.692;9.400;2024-01-30T00:17:36;98168.53;;;-0.84;100.00
28927;BME280;16038;47.692;9.400;2024-01-30T00:20:02;98166.69;;;-0.79;100.00
28927;BME280;16038;47.692;9.400;2024-01-30T00:22:33;98171.34;;;-0.69;100.00
28927;BME280;16038;47.692;9.400;2024-01-30T00:24:58;98174.56;;;-0.72;100.00
28927;BME280;16038;47.692;9.400;2024-01-30T00:27:23;98171.28;;;-0.74;100.00
28927;BME280;16038;47.692;9.400;2024-01-30T00:29:49;98162.94;;;-0.78;100.00
28927;BME280;16038;47.692;9.400;2024-01-30T00:32:14;98168.59;;;-0.79;100.00
28927;BME280;16038;47.692;9.400;2024-01-30T00:34:41;98165.66;;;-0.72;100.00
28927;BME280;16038;47.692;9.400;2024-01-30T00:37:07;98166.19;;;-0.75;100.00
28927;BME280;16038;47.692;9.400;2024-01-30T00:39:32;98162.38;;;-0.80;100.00
28927;BME280;16038;47.692;9.400;2024-01-30T00:41:58;98158.34;;;-0.82;100.00
28927;BME280;16038;47.692;9.400;2024-01-30T00:44:23;98160.19;;;-0.88;100.00
28927;BME280;16038;47.692;9.400;2024-01-30T00:46:49;98166.09;;;-0.86;100.00
28927;BME280;16038;47.692;9.400;2024-01-30T00:49:14;98163.66;;;-0.87;100.00
28927;BME280;16038;47.692;9.400;2024-01-30T00:51:40;98167.72;;;-0.85;100.00
28927;BME280;16038;47.692;9.400;2024-01-30T00:54:05;98163.91;;;-0.89;100.00
28927;BME280;16038;47.692;9.400;2024-01-30T00:56:31;98165.22;;;-1.24;100.00
28927;BME280;16038;47.692;9.400;2024-01-30T00:58:57;98169.44;;;-1.55;100.00
28927;BME280;16038;47.692;9.400;2024-01-30T01:01:22;98162.47;;;-1.56;100.00
28927;BME280;16038;47.692;9.400;2024-01-30T01:03:48;98166.88;;;-1.45;100.00
28927;BME280;16038;47.692;9.400;2024-01-30T01:06:13;98168.28;;;-1.37;100.00
28927;BME280;16038;47.692;9.400;2024-01-30T01:08:39;98169.53;;;-1.23;100.00
28927;BME280;16038;47.692;9.400;2024-01-30T01:11:04;98168.72;;;-1.23;100.00
28927;BME280;16038;47.692;9.400;2024-01-30T01:13:30;98177.88;;;-1.19;100.00
28927;BME280;16038;47.692;9.400;2024-01-30T01:15:55;98168.16;;;-1.25;100.00
28927;BME280;16038;47.692;9.400;2024-01-30T01:18:21;98174.34;;;-1.25;100.00
28927;BME280;16038;47.692;9.400;2024-01-30T01:20:46;98175.38;;;-1.31;100.00
28927;BME280;16038;47.692;9.400;2024-01-30T01:23:11;98174.50;;;-1.37;100.00
28927;BME280;16038;47.692;9.400;2024-01-30T01:25:37;98174.84;;;-1.77;100.00
28927;BME280;16038;47.692;9.400;2024-01-30T01:28:02;98179.78;;;-1.91;100.00
28927;BME280;16038;47.692;9.400;2024-01-30T01:30:28;98181.78;;;-2.03;100.00
28927;BME280;16038;47.692;9.400;2024-01-30T01:32:54;98188.28;;;-1.77;100.00
28927;BME280;16038;47.692;9.400;2024-01-30T01:35:26;98185.97;;;-1.68;100.00
28927;BME280;16038;47.692;9.400;2024-01-30T01:37:52;98182.63;;;-1.54;100.00
28927;BME280;16038;47.692;9.400;2024-01-30T01:40:23;98188.59;;;-1.96;100.00
28927;BME280;16038;47.692;9.400;2024-01-30T01:42:53;98187.75;;;-2.18;100.00
28927;BME280;16038;47.692;9.400;2024-01-30T01:45:19;98178.06;;;-2.19;100.00
28927;BME280;16038;47.692;9.400;2024-01-30T01:47:47;98186.44;;;-2.16;100.00
28927;BME280;16038;47.692;9.400;2024-01-30T01:50:15;98186.44;;;-2.16;100.00
28927;BME280;16038;47.692;9.400;2024-01-30T01:52:44;98175.41;;;-2.36;100.00
28927;BME280;16038;47.692;9.400;2024-01-30T01:55:12;98181.94;;;-2.49;100.00
28927;BME280;16038;47.692;9.400;2024-01-30T01:57:38;98184.44;;;-2.59;100.00
28927;BME280;16038;47.692;9.400;2024-01-30T02:00:04;98181.97;;;-2.66;100.00
28927;BME280;16038;47.692;9.400;2024-01-30T02:02:35;98180.66;;;-2.80;100.00
28927;BME280;16038;47.692;9.400;2024-01-30T02:05:02;98182.09;;;-3.07;100.00
28927;BME280;16038;47.692;9.400;2024-01-30T02:07:28;98186.09;;;-2.92;100.00
28927;BME280;16038;47.692;9.400;2024-01-30T02:09:54;98184.84;;;-3.18;100.00
28927;BME280;16038;47.692;9.400;2024-01-30T02:12:20;98196.59;;;-3.19;100.00
28927;BME280;16038;47.692;9.400;2024-01-30T02:14:48;98191.09;;;-3.13;100.00
28927;BME280;16038;47.692;9.400;2024-01-30T02:17:15;98186.78;;;-3.14;100.00
28927;BME280;16038;47.692;9.400;2024-01-30T02:19:41;98187.69;;;-3.08;100.00
28927;BME280;16038;47.692;9.400;2024-01-30T02:22:07;98186.72;;;-3.02;100.00
28927;BME280;16038;47.692;9.400;2024-01-30T02:24:32;98187.97;;;-2.93;100.00
28927;BME280;16038;47.692;9.400;2024-01-30T02:26:58;98180.41;;;-2.79;100.00
28927;BME280;16038;47.692;9.400;2024-01-30T02:29:23;98184.56;;;-2.88;100.00
28927;BME280;16038;47.692;9.400;2024-01-30T02:31:49;98178.22;;;-2.99;100.00
28927;BME280;16038;47.692;9.400;2024-01-30T02:34:14;98178.81;;;-3.25;100.00
28927;BME280;16038;47.692;9.400;2024-01-30T02:36:43;98173.56;;;-3.20;100.00
28927;BME280;16038;47.692;9.400;2024-01-30T02:39:09;98179.38;;;-3.23;100.00
28927;BME280;16038;47.692;9.400;2024-01-30T02:41:35;98169.72;;;-3.24;100.00
28927;BME280;16038;47.692;9.400;2024-01-30T02:44:00;98175.94;;;-3.36;100.00
28927;BME280;16038;47.692;9.400;2024-01-30T02:46:26;98177.25;;;-3.38;100.00
28927;BME280;16038;47.692;9.400;2024-01-30T02:48:51;98177.81;;;-3.36;100.00
28927;BME280;16038;47.692;9.400;2024-01-30T02:51:17;98178.97;;;-3.32;100.00
28927;BME280;16038;47.692;9.400;2024-01-30T02:53:42;98175.63;;;-3.22;100.00
28927;BME280;16038;47.692;9.400;2024-01-30T02:56:07;98175.63;;;-3.22;100.00
28927;BME280;16038;47.692;9.400;2024-01-30T02:58:39;98168.69;;;-3.07;100.00
28927;BME280;16038;47.692;9.400;2024-01-30T03:01:05;98175.88;;;-2.95;100.00
28927;BME280;16038;47.692;9.400;2024-01-30T03:03:30;98166.84;;;-3.06;100.00
28927;BME280;16038;47.692;9.400;2024-01-30T03:05:55;98171.28;;;-3.12;100.00
28927;BME280;16038;47.692;9.400;2024-01-30T03:08:21;98170.41;;;-3.46;100.00
28927;BME280;16038;47.692;9.400;2024-01-30T03:10:46;98170.13;;;-3.61;100.00
28927;BME280;16038;47.692;9.400;2024-01-30T03:13:11;98170.56;;;-3.53;100.00
28927;BME280;16038;47.692;9.400;2024-01-30T03:15:37;98167.56;;;-3.68;100.00
28927;BME280;16038;47.692;9.400;2024-01-30T03:18:02;98166.72;;;-3.57;100.00
28927;BME280;16038;47.692;9.400;2024-01-30T03:20:31;98163.25;;;-3.69;100.00
28927;BME280;16038;47.692;9.400;2024-01-30T03:22:56;98171.06;;;-3.68;100.00
28927;BME280;16038;47.692;9.400;2024-01-30T03:25:22;98169.38;;;-3.57;100.00
28927;BME280;16038;47.692;9.400;2024-01-30T03:27:47;98164.13;;;-3.52;100.00
28927;BME280;16038;47.692;9.400;2024-01-30T03:30:13;98166.13;;;-3.30;100.00
28927;BME280;16038;47.692;9.400;2024-01-30T03:32:38;98166.75;;;-2.94;100.00
28927;BME280;16038;47.692;9.400;2024-01-30T03:35:04;98167.91;;;-2.73;100.00
28927;BME280;16038;47.692;9.400;2024-01-30T03:37:29;98161.06;;;-2.64;100.00
28927;BME280;16038;47.692;9.400;2024-01-30T03:39:55;98169.19;;;-2.59;100.00
28927;BME280;16038;47.692;9.400;2024-01-30T03:42:20;98164.31;;;-2.62;100.00
28927;BME280;16038;47.692;9.400;2024-01-30T03:44:46;98163.69;;;-2.86;100.00
28927;BME280;16038;47.692;9.400;2024-01-30T03:47:11;98162.66;;;-3.14;100.00
28927;BME280;16038;47.692;9.400;2024-01-30T03:49:37;98156.09;;;-3.52;100.00
28927;BME280;16038;47.692;9.400;2024-01-30T03:52:02;98152.47;;;-3.74;100.00
28927;BME280;16038;47.692;9.400;2024-01-30T03:54:28;98157.56;;;-3.73;100.00
28927;BME280;16038;47.692;9.400;2024-01-30T03:56:53;98158.22;;;-3.54;100.00
28927;BME280;16038;47.692;9.400;2024-01-30T03:59:19;98157.34;;;-3.71;100.00
28927;BME280;16038;47.692;9.400;2024-01-30T04:01:49;98159.44;;;-3.73;100.00
28927;BME280;16038;47.692;9.400;2024-01-30T04:04:15;98157.00;;;-3.75;100.00
28927;BME280;16038;47.692;9.400;2024-01-30T04:06:42;98152.94;;;-3.77;100.00
28927;BME280;16038;47.692;9.400;2024-01-30T04:09:07;98154.88;;;-3.73;100.00
28927;BME280;16038;47.692;9.400;2024-01-30T04:11:32;98154.72;;;-3.83;100.00
28927;BME280;16038;47.692;9.400;2024-01-30T04:13:58;98148.97;;;-3.75;100.00
28927;BME280;16038;47.692;9.400;2024-01-30T04:16:23;98152.19;;;-3.61;100.00
28927;BME280;16038;47.692;9.400;2024-01-30T04:18:49;98151.31;;;-3.50;100.00
28927;BME280;16038;47.692;9.400;2024-01-30T04:21:14;98145.81;;;-3.43;100.00
28927;BME280;16038;47.692;9.400;2024-01-30T04:23:41;98150.41;;;-3.84;100.00
28927;BME280;16038;47.692;9.400;2024-01-30T04:26:06;98152.94;;;-3.77;100.00
28927;BME280;16038;47.692;9.400;2024-01-30T04:28:32;98156.19;;;-3.75;100.00
28927;BME280;16038;47.692;9.400;2024-01-30T04:30:57;98149.16;;;-3.65;100.00
28927;BME280;16038;47.692;9.400;2024-01-30T04:33:22;98152.38;;;-3.51;100.00
28927;BME280;16038;47.692;9.400;2024-01-30T04:35:48;98151.84;;;-3.65;100.00
28927;BME280;16038;47.692;9.400;2024-01-30T04:38:13;98148.06;;;-3.52;100.00
28927;BME280;16038;47.692;9.400;2024-01-30T04:40:40;98144.94;;;-3.32;100.00
28927;BME280;16038;47.692;9.400;2024-01-30T04:43:05;98149.91;;;-3.07;100.00
28927;BME280;16038;47.692;9.400;2024-01-30T04:45:31;98147.31;;;-3.01;100.00
28927;BME280;16038;47.692;9.400;2024-01-30T04:47:56;98148.78;;;-2.94;100.00
28927;BME280;16038;47.692;9.400;2024-01-30T04:50:22;98157.00;;;-2.83;100.00
28927;BME280;16038;47.692;9.400;2024-01-30T04:52:48;98157.16;;;-2.73;100.00
28927;BME280;16038;47.692;9.400;2024-01-30T04:55:13;98151.97;;;-2.63;100.00
28927;BME280;16038;47.692;9.400;2024-01-30T04:57:39;98152.69;;;-2.67;100.00
28927;BME280;16038;47.692;9.400;2024-01-30T05:00:05;98148.13;;;-2.67;100.00
28927;BME280;16038;47.692;9.400;2024-01-30T05:02:31;98154.81;;;-2.70;100.00
28927;BME280;16038;47.692;9.400;2024-01-30T05:04:56;98160.34;;;-2.76;100.00
28927;BME280;16038;47.692;9.400;2024-01-30T05:07:22;98160.09;;;-2.75;100.00
28927;BME280;16038;47.692;9.400;2024-01-30T05:09:48;98155.47;;;-2.62;100.00
28927;BME280;16038;47.692;9.400;2024-01-30T05:12:13;98165.38;;;-2.63;100.00
28927;BME280;16038;47.692;9.400;2024-01-30T05:14:39;98159.50;;;-2.60;100.00
28927;BME280;16038;47.692;9.400;2024-01-30T05:17:04;98166.00;;;-2.56;100.00
28927;BME280;16038;47.692;9.400;2024-01-30T05:19:29;98162.44;;;-2.61;100.00
28927;BME280;16038;47.692;9.400;2024-01-30T05:21:55;98165.19;;;-3.24;100.00
28927;BME280;16038;47.692;9.400;2024-01-30T05:24:20;98169.78;;;-3.36;100.00
28927;BME280;16038;47.692;9.400;2024-01-30T05:26:46;98165.25;;;-3.65;100.00
28927;BME280;16038;47.692;9.400;2024-01-30T05:29:12;98174.13;;;-3.76;100.00
28927;BME280;16038;47.692;9.400;2024-01-30T05:31:37;98178.00;;;-3.55;100.00
28927;BME280;16038;47.692;9.400;2024-01-30T05:34:03;98178.09;;;-3.50;100.00
28927;BME280;16038;47.692;9.400;2024-01-30T05:36:28;98178.09;;;-3.50;100.00
28927;BME280;16038;47.692;9.400;2024-01-30T05:38:54;98178.16;;;-3.33;100.00
28927;BME280;16038;47.692;9.400;2024-01-30T05:41:19;98180.94;;;-3.28;100.00
28927;BME280;16038;47.692;9.400;2024-01-30T05:43:46;98180.84;;;-3.16;100.00
28927;BME280;16038;47.692;9.400;2024-01-30T05:46:11;98173.31;;;-3.02;100.00
28927;BME280;16038;47.692;9.400;2024-01-30T05:48:37;98180.72;;;-2.92;100.00
28927;BME280;16038;47.692;9.400;2024-01-30T05:51:02;98180.09;;;-2.82;100.00
28927;BME280;16038;47.692;9.400;2024-01-30T05:53:29;98183.81;;;-2.83;100.00
28927;BME280;16038;47.692;9.400;2024-01-30T05:55:54;98183.00;;;-2.84;100.00
28927;BME280;16038;47.692;9.400;2024-01-30T05:58:20;98186.91;;;-2.75;100.00
28927;BME280;16038;47.692;9.400;2024-01-30T06:00:46;98189.25;;;-2.78;100.00
28927;BME280;16038;47.692;9.400;2024-01-30T06:03:12;98188.56;;;-2.74;100.00
28927;BME280;16038;47.692;9.400;2024-01-30T06:05:37;98186.00;;;-2.63;100.00
28927;BME280;16038;47.692;9.400;2024-01-30T06:08:03;98185.75;;;-2.62;100.00
28927;BME280;16038;47.692;9.400;2024-01-30T06:10:28;98183.31;;;-2.63;100.00
28927;BME280;16038;47.692;9.400;2024-01-30T06:12:54;98183.44;;;-3.21;100.00
28927;BME280;16038;47.692;9.400;2024-01-30T06:15:19;98184.59;;;-3.17;100.00
28927;BME280;16038;47.692;9.400;2024-01-30T06:17:44;98185.53;;;-3.40;100.00
28927;BME280;16038;47.692;9.400;2024-01-30T06:20:10;98184.22;;;-3.66;100.00
28927;BME280;16038;47.692;9.400;2024-01-30T06:22:35;98176.66;;;-3.69;100.00
28927;BME280;16038;47.692;9.400;2024-01-30T06:25:01;98177.81;;;-3.65;100.00
28927;BME280;16038;47.692;9.400;2024-01-30T06:27:26;98181.19;;;-3.58;100.00
28927;BME280;16038;47.692;9.400;2024-01-30T06:29:52;98185.47;;;-3.57;100.00
28927;BME280;16038;47.692;9.400;2024-01-30T06:32:17;98183.75;;;-3.63;100.00
28927;BME280;16038;47.692;9.400;2024-01-30T06:34:42;98183.19;;;-3.65;100.00
28927;BME280;16038;47.692;9.400;2024-01-30T06:37:09;98184.56;;;-3.62;100.00
28927;BME280;16038;47.692;9.400;2024-01-30T06:39:35;98193.56;;;-3.69;100.00
28927;BME280;16038;47.692;9.400;2024-01-30T06:42:00;98196.59;;;-3.77;100.00
28927;BME280;16038;47.692;9.400;2024-01-30T06:44:26;98190.56;;;-3.84;100.00
28927;BME280;16038;47.692;9.400;2024-01-30T06:46:51;98202.06;;;-3.84;100.00
28927;BME280;16038;47.692;9.400;2024-01-30T06:49:16;98200.00;;;-3.93;100.00
28927;BME280;16038;47.692;9.400;2024-01-30T06:51:42;98198.41;;;-3.94;100.00
28927;BME280;16038;47.692;9.400;2024-01-30T06:54:07;98198.72;;;-3.91;100.00
28927;BME280;16038;47.692;9.400;2024-01-30T06:56:33;98202.41;;;-3.80;100.00
28927;BME280;16038;47.692;9.400;2024-01-30T06:58:59;98199.59;;;-3.61;100.00
28927;BME280;16038;47.692;9.400;2024-01-30T07:01:28;98206.09;;;-3.69;100.00
28927;BME280;16038;47.692;9.400;2024-01-30T07:03:54;98211.56;;;-3.64;100.00
28927;BME280;16038;47.692;9.400;2024-01-30T07:06:20;98212.13;;;-3.62;100.00
28927;BME280;16038;47.692;9.400;2024-01-30T07:08:45;98207.41;;;-3.72;100.00
28927;BME280;16038;47.692;9.400;2024-01-30T07:11:18;98213.09;;;-3.56;100.00
28927;BME280;16038;47.692;9.400;2024-01-30T07:13:43;98209.38;;;-3.67;100.00
28927;BME280;16038;47.692;9.400;2024-01-30T07:16:09;98214.09;;;-3.46;100.00
28927;BME280;16038;47.692;9.400;2024-01-30T07:18:34;98208.41;;;-3.49;100.00
28927;BME280;16038;47.692;9.400;2024-01-30T07:20:59;98215.69;;;-3.44;100.00
28927;BME280;16038;47.692;9.400;2024-01-30T07:23:25;98217.13;;;-3.54;100.00
28927;BME280;16038;47.692;9.400;2024-01-30T07:25:51;98213.59;;;-3.42;100.00
28927;BME280;16038;47.692;9.400;2024-01-30T07:28:16;98221.53;;;-3.48;100.00
28927;BME280;16038;47.692;9.400;2024-01-30T07:30:43;98226.31;;;-3.50;100.00
28927;BME280;16038;47.692;9.400;2024-01-30T07:33:08;98229.31;;;-3.46;100.00
28927;BME280;16038;47.692;9.400;2024-01-30T07:35:34;98226.72;;;-3.29;100.00
28927;BME280;16038;47.692;9.400;2024-01-30T07:38:00;98229.66;;;-3.14;100.00
28927;BME280;16038;47.692;9.400;2024-01-30T07:40:25;98221.59;;;-3.31;100.00
28927;BME280;16038;47.692;9.400;2024-01-30T07:42:53;98225.19;;;-3.25;100.00
28927;BME280;16038;47.692;9.400;2024-01-30T07:45:19;98224.38;;;-3.25;100.00
28927;BME280;16038;47.692;9.400;2024-01-30T07:47:48;98218.84;;;-3.19;100.00
28927;BME280;16038;47.692;9.400;2024-01-30T07:50:14;98224.63;;;-3.10;100.00
28927;BME280;16038;47.692;9.400;2024-01-30T07:52:39;98219.47;;;-3.00;100.00
28927;BME280;16038;47.692;9.400;2024-01-30T07:55:05;98227.94;;;-2.91;100.00
28927;BME280;16038;47.692;9.400;2024-01-30T07:57:33;98229.97;;;-2.98;100.00
28927;BME280;16038;47.692;9.400;2024-01-30T07:59:59;98227.38;;;-2.93;100.00
28927;BME280;16038;47.692;9.400;2024-01-30T08:02:24;98234.91;;;-2.90;100.00
28927;BME280;16038;47.692;9.400;2024-01-30T08:04:50;98243.72;;;-2.78;100.00
28927;BME280;16038;47.692;9.400;2024-01-30T08:07:15;98240.00;;;-2.43;100.00
28927;BME280;16038;47.692;9.400;2024-01-30T08:09:42;98250.47;;;-2.41;100.00
28927;BME280;16038;47.692;9.400;2024-01-30T08:12:08;98248.25;;;-2.61;100.00
28927;BME280;16038;47.692;9.400;2024-01-30T08:14:33;98244.63;;;-2.55;100.00
28927;BME280;16038;47.692;9.400;2024-01-30T08:16:59;98250.22;;;-2.40;100.00
28927;BME280;16038;47.692;9.400;2024-01-30T08:19:24;98243.06;;;-2.51;100.00
28927;BME280;16038;47.692;9.400;2024-01-30T08:21:49;98248.75;;;-2.31;100.00
28927;BME280;16038;47.692;9.400;2024-01-30T08:24:15;98240.81;;;-2.42;100.00
28927;BME280;16038;47.692;9.400;2024-01-30T08:26:40;98245.00;;;-2.13;100.00
28927;BME280;16038;47.692;9.400;2024-01-30T08:29:06;98249.47;;;-2.18;100.00
28927;BME280;16038;47.692;9.400;2024-01-30T08:31:31;98248.84;;;-2.08;100.00
28927;BME280;16038;47.692;9.400;2024-01-30T08:33:57;98245.69;;;-1.83;100.00
28927;BME280;16038;47.692;9.400;2024-01-30T08:36:22;98248.06;;;-1.65;100.00
28927;BME280;16038;47.692;9.400;2024-01-30T08:38:47;98243.81;;;-1.61;100.00
28927;BME280;16038;47.692;9.400;2024-01-30T08:41:13;98246.56;;;-1.33;100.00
28927;BME280;16038;47.692;9.400;2024-01-30T08:43:38;98254.50;;;-1.22;100.00
28927;BME280;16038;47.692;9.400;2024-01-30T08:46:04;98255.22;;;-1.04;100.00
28927;BME280;16038;47.692;9.400;2024-01-30T08:48:29;98256.72;;;-0.91;100.00
28927;BME280;16038;47.692;9.400;2024-01-30T08:50:54;98251.72;;;-0.78;100.00
28927;BME280;16038;47.692;9.400;2024-01-30T08:53:20;98253.22;;;-0.60;100.00
28927;BME280;16038;47.692;9.400;2024-01-30T08:55:45;98253.53;;;-0.56;100.00
28927;BME280;16038;47.692;9.400;2024-01-30T08:58:10;98260.09;;;-0.47;100.00
28927;BME280;16038;47.692;9.400;2024-01-30T09:00:36;98254.41;;;-0.45;100.00
28927;BME280;16038;47.692;9.400;2024-01-30T09:03:03;98256.06;;;-0.44;100.00
28927;BME280;16038;47.692;9.400;2024-01-30T09:05:28;98252.72;;;-0.56;100.00
28927;BME280;16038;47.692;9.400;2024-01-30T09:07:54;98262.28;;;-0.39;100.00
28927;BME280;16038;47.692;9.400;2024-01-30T09:10:19;98263.38;;;-0.34;100.00
28927;BME280;16038;47.692;9.400;2024-01-30T09:12:46;98262.88;;;-0.31;100.00
28927;BME280;16038;47.692;9.400;2024-01-30T09:15:11;98271.09;;;-0.16;100.00
28927;BME280;16038;47.692;9.400;2024-01-30T09:17:37;98270.38;;;-0.01;100.00
28927;BME280;16038;47.692;9.400;2024-01-30T09:20:02;98276.66;;;0.10;100.00
28927;BME280;16038;47.692;9.400;2024-01-30T09:22:28;98262.13;;;0.16;100.00
28927;BME280;16038;47.692;9.400;2024-01-30T09:24:53;98262.75;;;-0.09;100.00
28927;BME280;16038;47.692;9.400;2024-01-30T09:27:19;98267.66;;;-0.06;100.00
28927;BME280;16038;47.692;9.400;2024-01-30T09:29:44;98263.34;;;-0.02;100.00
28927;BME280;16038;47.692;9.400;2024-01-30T09:32:09;98263.88;;;-0.05;100.00
28927;BME280;16038;47.692;9.400;2024-01-30T09:34:35;98266.91;;;0.09;100.00
28927;BME280;16038;47.692;9.400;2024-01-30T09:37:00;98257.38;;;0.33;100.00
28927;BME280;16038;47.692;9.400;2024-01-30T09:39:26;98260.97;;;0.49;100.00
28927;BME280;16038;47.692;9.400;2024-01-30T09:44:29;98259.72;;;0.72;100.00
28927;BME280;16038;47.692;9.400;2024-01-30T09:46:55;98254.63;;;0.91;100.00
28927;BME280;16038;47.692;9.400;2024-01-30T09:49:22;98246.34;;;1.08;100.00
28927;BME280;16038;47.692;9.400;2024-01-30T09:51:50;98242.28;;;1.11;100.00
28927;BME280;16038;47.692;9.400;2024-01-30T09:54:15;98241.22;;;1.12;100.00
28927;BME280;16038;47.692;9.400;2024-01-30T09:56:41;98239.59;;;1.16;100.00
28927;BME280;16038;47.692;9.400;2024-01-30T09:59:06;98239.88;;;1.25;100.00
28927;BME280;16038;47.692;9.400;2024-01-30T10:01:34;98245.28;;;1.30;100.00
28927;BME280;16038;47.692;9.400;2024-01-30T10:03:59;98240.66;;;1.20;100.00
28927;BME280;16038;47.692;9.400;2024-01-30T10:06:26;98237.97;;;1.15;100.00
28927;BME280;16038;47.692;9.400;2024-01-30T10:08:51;98236.09;;;1.16;100.00
28927;BME280;16038;47.692;9.400;2024-01-30T10:11:17;98235.28;;;1.25;100.00
28927;BME280;16038;47.692;9.400;2024-01-30T10:13:42;98239.59;;;1.37;100.00
28927;BME280;16038;47.692;9.400;2024-01-30T10:16:07;98237.47;;;1.33;100.00
28927;BME280;16038;47.692;9.400;2024-01-30T10:18:33;98233.09;;;1.22;100.00
28927;BME280;16038;47.692;9.400;2024-01-30T10:20:59;98230.94;;;1.09;100.00
28927;BME280;16038;47.692;9.400;2024-01-30T10:23:24;98236.09;;;1.21;100.00
28927;BME280;16038;47.692;9.400;2024-01-30T10:25:51;98229.63;;;1.47;100.00
28927;BME280;16038;47.692;9.400;2024-01-30T10:28:17;98231.78;;;1.81;100.00
28927;BME280;16038;47.692;9.400;2024-01-30T10:30:42;98232.56;;;1.92;100.00
28927;BME280;16038;47.692;9.400;2024-01-30T10:33:09;98230.13;;;1.85;100.00
28927;BME280;16038;47.692;9.400;2024-01-30T10:35:34;98228.78;;;1.98;100.00
28927;BME280;16038;47.692;9.400;2024-01-30T10:38:00;98224.19;;;1.78;100.00
28927;BME280;16038;47.692;9.400;2024-01-30T10:40:29;98225.50;;;2.12;100.00
28927;BME280;16038;47.692;9.400;2024-01-30T10:42:55;98224.72;;;1.90;100.00
28927;BME280;16038;47.692;9.400;2024-01-30T10:45:22;98222.59;;;1.82;100.00
28927;BME280;16038;47.692;9.400;2024-01-30T10:47:49;98220.44;;;1.89;100.00
28927;BME280;16038;47.692;9.400;2024-01-30T10:50:15;98220.44;;;1.84;100.00
28927;BME280;16038;47.692;9.400;2024-01-30T10:52:42;98213.09;;;2.05;100.00
28927;BME280;16038;47.692;9.400;2024-01-30T10:55:09;98217.13;;;2.18;100.00
28927;BME280;16038;47.692;9.400;2024-01-30T10:57:35;98216.78;;;2.35;100.00
28927;BME280;16038;47.692;9.400;2024-01-30T11:00:09;98214.88;;;2.36;100.00
28927;BME280;16038;47.692;9.400;2024-01-30T11:02:43;98209.53;;;2.25;100.00
28927;BME280;16038;47.692;9.400;2024-01-30T11:05:09;98204.31;;;2.39;100.00
28927;BME280;16038;47.692;9.400;2024-01-30T11:07:35;98207.97;;;2.74;100.00
28927;BME280;16038;47.692;9.400;2024-01-30T11:10:04;98201.84;;;2.53;100.00
28927;BME280;16038;47.692;9.400;2024-01-30T11:12:31;98204.81;;;2.52;100.00
28927;BME280;16038;47.692;9.400;2024-01-30T11:15:07;98200.91;;;2.83;100.00
28927;BME280;16038;47.692;9.400;2024-01-30T11:17:45;98199.84;;;2.79;100.00
28927;BME280;16038;47.692;9.400;2024-01-30T11:20:22;98198.75;;;2.75;100.00
28927;BME280;16038;47.692;9.400;2024-01-30T11:22:54;98203.25;;;2.45;100.00
28927;BME280;16038;47.692;9.400;2024-01-30T11:25:20;98199.63;;;2.71;100.00
28927;BME280;16038;47.692;9.400;2024-01-30T11:27:47;98196.47;;;2.98;100.00
28927;BME280;16038;47.692;9.400;2024-01-30T11:30:32;98187.22;;;3.04;100.00
28927;BME280;16038;47.692;9.400;2024-01-30T11:33:05;98180.00;;;2.94;100.00
28927;BME280;16038;47.692;9.400;2024-01-30T11:35:36;98178.81;;;3.05;100.00
28927;BME280;16038;47.692;9.400;2024-01-30T11:38:03;98167.44;;;3.09;100.00
28927;BME280;16038;47.692;9.400;2024-01-30T11:40:30;98174.59;;;3.29;100.00
28927;BME280;16038;47.692;9.400;2024-01-30T11:42:56;98166.88;;;3.12;100.00
28927;BME280;16038;47.692;9.400;2024-01-30T11:45:26;98165.31;;;3.00;100.00
28927;BME280;16038;47.692;9.400;2024-01-30T11:47:53;98170.09;;;3.19;100.00
28927;BME280;16038;47.692;9.400;2024-01-30T11:50:18;98158.84;;;3.36;100.00
28927;BME280;16038;47.692;9.400;2024-01-30T11:52:44;98162.16;;;3.28;100.00
28927;BME280;16038;47.692;9.400;2024-01-30T11:55:10;98159.56;;;3.12;100.00
28927;BME280;16038;47.692;9.400;2024-01-30T11:57:36;98165.34;;;2.95;100.00
28927;BME280;16038;47.692;9.400;2024-01-30T12:00:05;98163.38;;;3.06;100.00
28927;BME280;16038;47.692;9.400;2024-01-30T12:02:39;98165.84;;;2.63;100.00
28927;BME280;16038;47.692;9.400;2024-01-30T12:05:07;98160.63;;;2.72;100.00
28927;BME280;16038;47.692;9.400;2024-01-30T12:07:33;98154.66;;;2.75;100.00
28927;BME280;16038;47.692;9.400;2024-01-30T12:09:59;98150.16;;;3.04;100.00
28927;BME280;16038;47.692;9.400;2024-01-30T12:12:25;98145.63;;;2.90;100.00
28927;BME280;16038;47.692;9.400;2024-01-30T12:14:51;98141.06;;;2.90;100.00
28927;BME280;16038;47.692;9.400;2024-01-30T12:17:43;98139.44;;;3.23;100.00
28927;BME280;16038;47.692;9.400;2024-01-30T12:20:13;98139.88;;;3.36;100.00
28927;BME280;16038;47.692;9.400;2024-01-30T12:22:41;98135.84;;;3.62;100.00
28927;BME280;16038;47.692;9.400;2024-01-30T12:25:11;98137.63;;;3.48;100.00
28927;BME280;16038;47.692;9.400;2024-01-30T12:27:37;98136.25;;;3.45;100.00
28927;BME280;16038;47.692;9.400;2024-01-30T12:30:11;98141.44;;;3.08;100.00
28927;BME280;16038;47.692;9.400;2024-01-30T12:32:45;98140.31;;;2.79;100.00
28927;BME280;16038;47.692;9.400;2024-01-30T12:35:15;98137.72;;;2.98;100.00
28927;BME280;16038;47.692;9.400;2024-01-30T12:37:43;98136.94;;;2.98;100.00
28927;BME280;16038;47.692;9.400;2024-01-30T12:40:09;98141.59;;;2.87;100.00
28927;BME280;16038;47.692;9.400;2024-01-30T12:42:35;98138.22;;;2.66;100.00
28927;BME280;16038;47.692;9.400;2024-01-30T12:45:04;98129.06;;;2.57;100.00
28927;BME280;16038;47.692;9.400;2024-01-30T12:47:30;98136.03;;;2.68;100.00
28927;BME280;16038;47.692;9.400;2024-01-30T12:49:56;98136.88;;;2.68;100.00